Landrienne, Canada
Current Conditions -  °F | °C
As of 5:00 AM on Sunday 25 Jan 2015 (Local Time) from CYVO Reporting Station
Overcast Overcast  
Wind Chill: -28°   Ceiling: 1800
Heat Index: -8°   Visibility: 7mi
Dew Point: -13°   Wind: 14mph
Humidity: 77%   Direction: 320°NW
Pressure: 29.67"   Gusts: 20mph
Location:  48.55°N, 77.95°W
Report Text: CYVO 251000Z AUTO 32012G17KT 7SM OVC018 M22/M25 A2967 RMK SLP082
Loading
Personal Weather Stations






























Interactive Weather Map New forecast layout! Learn more

10-Day Weather Forecast

Advertisements
Track Severe Weather on mobile